createdAt,value
2018-11-25T00:00:11.429Z,38.03
2018-11-25T00:02:40.533Z,36.23
2018-11-25T00:05:09.506Z,37.53
2018-11-25T00:07:38.333Z,37.83
2018-11-25T00:10:08.003Z,37.97
2018-11-25T00:12:36.918Z,38.97
2018-11-25T00:15:08.018Z,38.03
2018-11-25T00:17:36.960Z,38.80
2018-11-25T00:20:07.388Z,38.00
2018-11-25T00:22:36.679Z,38.50
2018-11-25T00:25:06.317Z,39.27
2018-11-25T00:27:35.117Z,36.97
2018-11-25T00:30:04.495Z,36.77
2018-11-25T00:32:33.383Z,38.13
2018-11-25T00:35:02.241Z,36.47
2018-11-25T00:37:31.073Z,35.40
2018-11-25T00:40:00.294Z,34.37
2018-11-25T00:42:29.850Z,38.03
2018-11-25T00:44:58.670Z,36.13
2018-11-25T00:47:27.928Z,35.90
2018-11-25T00:49:57.319Z,36.73
2018-11-25T00:52:26.265Z,36.27
2018-11-25T00:54:55.129Z,36.70
2018-11-25T00:57:23.941Z,35.47
2018-11-25T00:59:53.218Z,34.67
2018-11-25T01:02:22.110Z,34.70
2018-11-25T01:04:50.904Z,35.17
2018-11-25T01:07:20.210Z,34.83
2018-11-25T01:09:49.491Z,35.50
2018-11-25T01:12:18.387Z,34.10
2018-11-25T01:14:47.205Z,31.13
2018-11-25T01:17:16.268Z,31.57
2018-11-25T01:19:45.282Z,31.63
2018-11-25T01:22:14.505Z,31.73
2018-11-25T01:24:43.429Z,30.87
2018-11-25T01:27:19.125Z,32.23
2018-11-25T01:29:48.065Z,30.43
2018-11-25T01:32:16.857Z,30.50
2018-11-25T01:34:45.686Z,30.80
2018-11-25T01:37:14.878Z,29.83
2018-11-25T01:39:43.778Z,29.73
2018-11-25T01:42:12.998Z,29.87
2018-11-25T01:44:41.870Z,30.80
2018-11-25T01:47:10.857Z,28.57
2018-11-25T01:49:39.728Z,30.03
2018-11-25T01:52:08.502Z,30.17
2018-11-25T01:54:38.269Z,27.50
2018-11-25T01:57:07.083Z,32.43
2018-11-25T01:59:36.334Z,31.37
2018-11-25T02:02:05.846Z,28.63
2018-11-25T02:04:34.768Z,32.00
2018-11-25T02:07:03.624Z,30.97
2018-11-25T02:09:32.842Z,29.37
2018-11-25T02:12:02.146Z,30.40
2018-11-25T02:14:31.045Z,31.00
2018-11-25T02:16:59.907Z,28.13
2018-11-25T02:19:28.811Z,30.30
2018-11-25T02:21:57.600Z,29.70
2018-11-25T02:24:26.405Z,29.50
2018-11-25T02:26:55.254Z,29.57
2018-11-25T02:29:24.089Z,29.37
2018-11-25T02:31:52.898Z,27.73
2018-11-25T02:34:21.741Z,28.20
2018-11-25T02:36:50.970Z,29.60
2018-11-25T02:39:20.958Z,27.30
2018-11-25T02:41:49.879Z,26.23
2018-11-25T02:44:18.740Z,26.00
2018-11-25T02:46:47.939Z,26.37
2018-11-25T02:49:16.865Z,26.37
2018-11-25T02:51:45.693Z,25.50
2018-11-25T02:54:14.518Z,25.40
2018-11-25T02:56:43.337Z,23.47
2018-11-25T02:59:12.198Z,23.83
2018-11-25T03:01:41.061Z,23.53
2018-11-25T03:04:09.909Z,23.63
2018-11-25T03:06:38.748Z,22.93
2018-11-25T03:09:07.689Z,22.23
2018-11-25T03:11:36.521Z,23.40
2018-11-25T03:14:05.622Z,24.13
2018-11-25T03:16:34.410Z,24.70
2018-11-25T03:19:03.697Z,25.17
2018-11-25T03:21:32.601Z,24.77
2018-11-25T03:24:01.831Z,24.60
2018-11-25T03:26:30.761Z,24.77
2018-11-25T03:28:59.982Z,24.73
2018-11-25T03:31:29.290Z,22.93
2018-11-25T03:33:58.216Z,23.10
2018-11-25T03:36:27.026Z,22.43
2018-11-25T03:38:55.909Z,20.97
2018-11-25T03:41:24.741Z,20.40
2018-11-25T03:43:53.611Z,19.97
2018-11-25T03:46:22.477Z,18.83
2018-11-25T03:48:51.399Z,18.93
2018-11-25T03:51:20.226Z,19.13
2018-11-25T03:53:49.480Z,17.43
2018-11-25T03:56:18.669Z,17.23
2018-11-25T03:58:47.613Z,16.13
2018-11-25T04:01:16.434Z,16.97
2018-11-25T04:03:45.328Z,16.83
2018-11-25T04:06:14.145Z,16.53
2018-11-25T04:08:43.009Z,18.73
2018-11-25T04:11:11.833Z,19.50
2018-11-25T04:13:40.658Z,20.43
2018-11-25T04:16:09.505Z,21.60
2018-11-25T04:18:38.333Z,22.47
2018-11-25T04:21:07.128Z,24.03
2018-11-25T04:23:35.994Z,24.47
2018-11-25T04:26:04.906Z,25.20
2018-11-25T04:28:34.118Z,25.40
2018-11-25T04:31:03.010Z,27.27
2018-11-25T04:33:31.820Z,29.40
2018-11-25T04:36:00.653Z,29.00
2018-11-25T04:38:29.878Z,26.20
2018-11-25T04:40:59.505Z,27.33
2018-11-25T04:43:28.293Z,30.63
2018-11-25T04:45:57.725Z,29.50
2018-11-25T04:48:26.541Z,29.83
2018-11-25T04:50:55.361Z,29.60
2018-11-25T04:55:53.937Z,28.97
2018-11-25T05:18:43.824Z,35.63
2018-11-25T05:21:12.645Z,36.37
2018-11-25T05:23:41.505Z,36.67
2018-11-25T05:26:10.346Z,36.30
2018-11-25T05:28:39.162Z,36.43
2018-11-25T05:31:07.976Z,37.17
2018-11-25T05:33:36.765Z,38.00
2018-11-25T05:36:05.621Z,37.80
2018-11-25T05:38:34.453Z,37.77
2018-11-25T05:41:03.271Z,38.17
2018-11-25T05:43:32.157Z,38.60
2018-11-25T05:46:01.017Z,36.47
2018-11-25T05:48:29.823Z,37.63
2018-11-25T05:50:59.110Z,35.03
2018-11-25T05:53:27.999Z,37.23
2018-11-25T05:55:56.803Z,38.07
2018-11-25T05:58:25.646Z,36.70
2018-11-25T06:00:54.453Z,36.13
2018-11-25T06:03:23.633Z,35.57
2018-11-25T06:05:52.542Z,36.23
2018-11-25T06:08:21.366Z,34.10
2018-11-25T06:10:50.181Z,37.80
2018-11-25T06:13:19.030Z,33.63
2018-11-25T06:15:47.903Z,34.33
2018-11-25T06:18:16.712Z,35.37
2018-11-25T06:20:45.550Z,34.37
2018-11-25T06:23:14.377Z,32.87
2018-11-25T06:25:43.197Z,34.37
2018-11-25T06:28:12.405Z,34.37
2018-11-25T06:30:41.301Z,33.57
2018-11-25T06:33:10.125Z,33.77
2018-11-25T06:35:39.350Z,32.50
2018-11-25T06:38:08.241Z,31.67
2018-11-25T06:40:37.407Z,34.47
2018-11-25T06:43:06.373Z,31.80
2018-11-25T06:45:35.547Z,32.67
2018-11-25T06:48:04.468Z,32.50
2018-11-25T06:50:33.654Z,33.58
2018-11-25T06:53:03.018Z,31.07
2018-11-25T06:55:31.936Z,31.93
2018-11-25T06:58:00.824Z,31.67
2018-11-25T07:00:29.625Z,31.87
2018-11-25T07:02:58.420Z,30.67
2018-11-25T07:05:27.665Z,30.17
2018-11-25T07:07:56.600Z,30.52
2018-11-25T07:10:25.418Z,33.07
2018-11-25T07:12:54.613Z,31.37
2018-11-25T07:15:23.608Z,31.53
2018-11-25T07:17:52.443Z,30.80
2018-11-25T07:20:21.332Z,23.63
2018-11-25T07:22:50.153Z,24.30
2018-11-25T07:25:19.881Z,23.57
2018-11-25T07:27:48.781Z,23.87
2018-11-25T07:30:22.009Z,23.23
2018-11-25T07:32:50.867Z,22.90
2018-11-25T07:35:19.676Z,23.07
2018-11-25T07:37:48.525Z,22.87
2018-11-25T07:40:17.834Z,22.43
2018-11-25T07:42:46.665Z,24.90
2018-11-25T07:45:16.040Z,21.87
2018-11-25T07:47:44.933Z,21.47
2018-11-25T07:50:14.114Z,21.33
2018-11-25T07:52:43.573Z,22.90
2018-11-25T07:55:14.909Z,21.87
2018-11-25T07:57:43.848Z,22.50
2018-11-25T08:00:13.611Z,24.00
2018-11-25T08:02:42.423Z,23.70
2018-11-25T08:05:11.889Z,24.00
2018-11-25T08:07:40.689Z,24.17
2018-11-25T08:10:10.350Z,28.17
2018-11-25T08:12:39.190Z,30.27
2018-11-25T08:15:09.977Z,32.10
2018-11-25T08:17:39.057Z,31.63
2018-11-25T08:20:11.964Z,31.23
2018-11-25T08:22:40.797Z,28.60
2018-11-25T08:25:12.701Z,28.53
2018-11-25T08:27:41.550Z,29.03
2018-11-25T08:30:18.337Z,27.47
2018-11-25T08:32:47.246Z,27.03
2018-11-25T08:35:16.325Z,26.70
2018-11-25T08:37:45.216Z,30.33
2018-11-25T08:40:18.457Z,27.87
2018-11-25T08:42:47.262Z,27.83
2018-11-25T08:45:16.046Z,29.27
2018-11-25T08:47:44.896Z,29.30
2018-11-25T08:50:14.138Z,30.13
2018-11-25T08:52:43.300Z,30.90
2018-11-25T08:55:12.706Z,30.37
2018-11-25T08:57:41.562Z,31.40
2018-11-25T09:00:13.830Z,34.10
2018-11-25T09:02:43.327Z,32.27
2018-11-25T09:05:13.244Z,32.97
2018-11-25T09:07:42.128Z,36.67
2018-11-25T09:10:12.256Z,68.27
2018-11-25T09:12:41.049Z,36.00
2018-11-25T09:15:10.633Z,37.40
2018-11-25T09:17:39.485Z,38.27
2018-11-25T09:20:09.394Z,38.20
2018-11-25T09:22:38.198Z,38.20
2018-11-25T09:25:08.921Z,36.33
2018-11-25T09:27:37.711Z,36.47
2018-11-25T09:30:10.706Z,35.20
2018-11-25T09:32:39.520Z,36.47
2018-11-25T09:35:08.378Z,35.73
2018-11-25T09:37:37.402Z,36.43
2018-11-25T09:40:08.183Z,33.10
2018-11-25T09:42:37.090Z,34.97
2018-11-25T09:45:07.342Z,34.00
2018-11-25T09:47:36.627Z,35.60
2018-11-25T09:50:08.242Z,30.80
2018-11-25T09:52:37.193Z,30.73
2018-11-25T09:55:07.207Z,30.07
2018-11-25T09:57:36.454Z,26.93
2018-11-25T10:00:12.454Z,28.40
2018-11-25T10:02:41.275Z,30.10
2018-11-25T10:05:10.182Z,27.83
2018-11-25T10:07:41.528Z,26.87
2018-11-25T10:10:11.200Z,26.37
2018-11-25T10:12:39.993Z,28.77
2018-11-25T10:15:11.214Z,26.93
2018-11-25T10:17:40.182Z,27.30
2018-11-25T10:20:09.796Z,27.63
2018-11-25T10:22:38.590Z,27.37
2018-11-25T10:25:08.373Z,28.67
2018-11-25T10:27:37.630Z,26.80
2018-11-25T10:30:09.766Z,25.83
2018-11-25T10:32:38.597Z,23.87
2018-11-25T10:35:07.719Z,21.60
2018-11-25T10:37:36.547Z,22.57
2018-11-25T10:40:07.890Z,22.03
2018-11-25T10:42:36.713Z,21.53
2018-11-25T10:45:06.689Z,21.43
2018-11-25T10:47:35.593Z,19.93
2018-11-25T10:50:04.506Z,18.80
2018-11-25T10:52:33.309Z,18.07
2018-11-25T10:55:02.523Z,23.17
2018-11-25T10:57:31.409Z,16.30
2018-11-25T11:00:00.233Z,18.20
2018-11-25T11:02:34.475Z,17.30
2018-11-25T11:05:04.708Z,14.80
2018-11-25T11:07:39.446Z,13.13
2018-11-25T11:10:09.046Z,13.23
2018-11-25T11:12:37.893Z,12.50
2018-11-25T11:15:08.594Z,12.70
2018-11-25T11:17:37.420Z,12.97
2018-11-25T11:20:07.357Z,12.03
2018-11-25T11:22:36.174Z,13.33
2018-11-25T11:25:05.281Z,14.00
2018-11-25T11:27:34.150Z,12.23
2018-11-25T11:30:03.076Z,11.20
2018-11-25T11:32:31.865Z,12.03
2018-11-25T11:35:00.713Z,11.83
2018-11-25T11:37:29.507Z,13.10
2018-11-25T11:39:58.503Z,11.13
2018-11-25T11:42:28.652Z,12.30
2018-11-25T11:44:56.154Z,12.00
2018-11-25T11:47:24.950Z,11.53
2018-11-25T11:49:53.809Z,12.97
2018-11-25T11:52:22.617Z,12.40
2018-11-25T11:54:51.404Z,13.37
2018-11-25T11:57:20.222Z,13.33
2018-11-25T11:59:49.120Z,14.73
2018-11-25T12:02:17.945Z,13.63
2018-11-25T12:22:05.903Z,11.27
2018-11-25T12:24:34.727Z,13.97
2018-11-25T12:27:03.546Z,12.53
2018-11-25T12:29:32.822Z,12.70
2018-11-25T12:32:01.741Z,13.83
2018-11-25T12:34:30.534Z,14.10
2018-11-25T12:36:59.362Z,13.57
2018-11-25T12:39:28.576Z,13.60
2018-11-25T12:41:57.291Z,15.03
2018-11-25T12:44:29.348Z,15.17
2018-11-25T12:46:55.022Z,16.67
2018-11-25T12:49:23.878Z,15.20
2018-11-25T12:51:52.741Z,16.30
2018-11-25T12:54:21.594Z,17.00
2018-11-25T12:56:51.872Z,14.70
2018-11-25T12:59:19.281Z,15.17
2018-11-25T13:01:48.085Z,14.67
2018-11-25T13:04:16.898Z,14.50
2018-11-25T13:06:45.693Z,14.67
2018-11-25T13:09:14.537Z,13.90
2018-11-25T13:11:44.444Z,13.57
2018-11-25T13:14:12.522Z,13.27
2018-11-25T13:16:41.437Z,13.90
2018-11-25T13:19:10.674Z,14.00
2018-11-25T13:21:39.618Z,13.93
2018-11-25T13:24:08.506Z,12.90
2018-11-25T13:26:37.294Z,13.37
2018-11-25T13:29:06.846Z,13.57
2018-11-25T13:31:35.734Z,13.80
2018-11-25T13:34:04.621Z,13.20
2018-11-25T13:36:33.442Z,13.83
2018-11-25T13:39:02.275Z,14.07
2018-11-25T13:41:31.119Z,13.70
2018-11-25T13:43:59.945Z,13.77
2018-11-25T13:46:28.797Z,12.97
2018-11-25T13:48:57.964Z,13.13
2018-11-25T13:51:26.857Z,12.57
2018-11-25T13:53:59.246Z,12.03
2018-11-25T13:56:28.204Z,12.80
2018-11-25T13:58:57.011Z,12.03
2018-11-25T14:01:25.876Z,12.10
2018-11-25T14:03:54.669Z,11.63
2018-11-25T14:06:23.493Z,13.07
2018-11-25T14:08:53.130Z,12.30
2018-11-25T14:11:22.009Z,13.13
2018-11-25T14:13:50.827Z,12.00
2018-11-25T14:16:20.213Z,12.13
2018-11-25T14:18:49.010Z,12.87
2018-11-25T14:21:17.862Z,13.33
2018-11-25T14:23:46.700Z,12.73
2018-11-25T14:26:20.314Z,12.80
2018-11-25T14:28:49.465Z,13.30
2018-11-25T14:31:18.335Z,13.70
2018-11-25T14:33:47.158Z,15.60
2018-11-25T14:36:16.005Z,14.33
2018-11-25T14:38:45.295Z,13.90
2018-11-25T14:41:13.676Z,16.30
2018-11-25T14:43:42.473Z,15.67
2018-11-25T14:46:11.281Z,15.93
2018-11-25T14:48:40.086Z,16.47
2018-11-25T14:51:08.942Z,17.60
2018-11-25T14:53:37.764Z,17.43
2018-11-25T14:56:06.558Z,18.87
2018-11-25T14:58:35.375Z,19.87
2018-11-25T15:01:04.186Z,18.47
2018-11-25T15:03:33.215Z,20.03
2018-11-25T15:06:02.035Z,23.93
2018-11-25T15:08:30.861Z,22.97
2018-11-25T15:10:59.717Z,22.67
2018-11-25T15:13:28.557Z,22.30
2018-11-25T15:15:58.109Z,21.37
2018-11-25T15:18:26.945Z,21.87
2018-11-25T15:20:55.777Z,23.43
2018-11-25T15:23:24.582Z,22.17
2018-11-25T15:25:54.073Z,22.37
2018-11-25T15:28:22.877Z,20.60
2018-11-25T15:30:51.721Z,19.83
2018-11-25T15:33:20.533Z,19.23
2018-11-25T15:35:49.323Z,18.87
2018-11-25T15:38:18.193Z,17.30
2018-11-25T15:40:47.055Z,17.60
2018-11-25T15:43:15.857Z,17.63
2018-11-25T15:45:44.709Z,16.13
2018-11-25T15:49:46.149Z,15.87
2018-11-25T15:52:14.967Z,13.47
2018-11-25T15:54:43.801Z,14.37
2018-11-25T15:57:12.652Z,14.77
2018-11-25T15:59:41.519Z,13.10
2018-11-25T16:02:10.379Z,11.53
2018-11-25T16:04:39.181Z,13.10
2018-11-25T16:07:08.019Z,12.33
2018-11-25T16:09:36.861Z,11.30
2018-11-25T16:12:05.761Z,11.93
2018-11-25T16:14:34.621Z,10.77
2018-11-25T16:17:03.440Z,11.77
2018-11-25T16:19:32.322Z,13.10
2018-11-25T16:22:01.153Z,14.13
2018-11-25T16:24:29.963Z,12.73
2018-11-25T16:26:58.782Z,12.80
2018-11-25T16:29:27.733Z,12.10
2018-11-25T16:31:56.666Z,12.60
2018-11-25T16:34:25.914Z,12.30
2018-11-25T16:36:54.790Z,11.87
2018-11-25T16:39:23.597Z,12.27
2018-11-25T16:41:52.481Z,10.87
2018-11-25T16:44:21.305Z,10.60
2018-11-25T16:46:50.173Z,11.17
2018-11-25T16:49:19.761Z,12.00
2018-11-25T16:51:48.676Z,11.87
2018-11-25T16:54:17.534Z,11.33
2018-11-25T16:56:46.329Z,14.33
2018-11-25T16:59:15.182Z,13.40
2018-11-25T17:01:44.049Z,13.00
2018-11-25T17:04:12.944Z,12.57
2018-11-25T17:06:42.536Z,11.10
2018-11-25T17:09:11.826Z,12.47
2018-11-25T17:11:40.754Z,10.90
2018-11-25T17:14:09.626Z,10.90
2018-11-25T17:16:38.454Z,11.63
2018-11-25T17:19:07.253Z,12.47
2018-11-25T17:21:36.450Z,12.83
2018-11-25T17:24:05.428Z,10.97
2018-11-25T17:26:34.223Z,11.80
2018-11-25T17:29:03.009Z,11.50
2018-11-25T17:31:31.834Z,10.60
2018-11-25T17:34:00.689Z,11.80
2018-11-25T17:36:29.481Z,10.87
2018-11-25T17:38:58.278Z,10.23
2018-11-25T17:41:27.120Z,9.33
2018-11-25T17:43:56.016Z,10.47
2018-11-25T17:46:24.913Z,10.07
2018-11-25T17:48:53.841Z,10.23
2018-11-25T17:51:22.690Z,9.63
2018-11-25T17:53:51.593Z,10.10
2018-11-25T17:56:20.406Z,10.80
2018-11-25T17:58:49.442Z,10.80
2018-11-25T18:01:19.043Z,10.70
2018-11-25T18:03:47.925Z,11.03
2018-11-25T18:06:16.757Z,11.37
2018-11-25T18:08:45.622Z,11.03
2018-11-25T18:11:14.480Z,14.17
2018-11-25T18:13:43.334Z,13.30
2018-11-25T18:16:12.930Z,13.23
2018-11-25T18:18:43.677Z,14.17
2018-11-25T18:21:14.513Z,16.70
2018-11-25T18:23:43.386Z,13.93
2018-11-25T18:26:12.289Z,15.77
2018-11-25T18:28:41.104Z,14.03
2018-11-25T18:31:10.448Z,16.07
2018-11-25T18:33:39.293Z,14.37
2018-11-25T18:36:09.105Z,20.27
2018-11-25T18:38:37.905Z,14.73
2018-11-25T18:41:06.713Z,14.77
2018-11-25T18:43:35.575Z,14.90
2018-11-25T18:46:04.963Z,15.23
2018-11-25T18:48:34.348Z,14.78
2018-11-25T18:51:03.137Z,14.60
2018-11-25T18:53:31.989Z,15.53
2018-11-25T18:56:00.790Z,20.63
2018-11-25T18:58:29.607Z,16.90
2018-11-25T19:01:02.661Z,16.57
2018-11-25T19:03:31.879Z,15.40
2018-11-25T19:06:00.805Z,12.70
2018-11-25T19:08:29.678Z,13.47
2018-11-25T19:10:58.529Z,12.27
2018-11-25T19:13:27.540Z,12.17
2018-11-25T19:15:56.418Z,12.63
2018-11-25T19:18:25.272Z,12.83
2018-11-25T19:20:54.106Z,11.10
2018-11-25T19:23:23.310Z,12.07
2018-11-25T19:25:52.870Z,11.70
2018-11-25T19:28:21.938Z,11.30
2018-11-25T19:30:50.754Z,13.67
2018-11-25T19:33:20.340Z,12.30
2018-11-25T19:35:49.182Z,16.03
2018-11-25T19:38:18.086Z,12.97
2018-11-25T19:40:46.985Z,13.80
2018-11-25T19:43:16.218Z,11.83
2018-11-25T19:45:45.329Z,11.63
2018-11-25T19:48:14.157Z,11.83
2018-11-25T19:50:43.567Z,12.50
2018-11-25T19:53:12.925Z,12.10
2018-11-25T19:55:44.769Z,12.57
2018-11-25T19:58:13.778Z,13.70
2018-11-25T20:00:42.586Z,13.37
2018-11-25T20:03:11.518Z,13.80
2018-11-25T20:05:40.369Z,14.37
2018-11-25T20:08:09.190Z,14.53
2018-11-25T20:10:38.070Z,16.30
2018-11-25T20:13:07.764Z,15.20
2018-11-25T20:15:36.816Z,15.30
2018-11-25T20:18:06.090Z,14.80
2018-11-25T20:20:34.883Z,14.67
2018-11-25T20:23:03.729Z,14.90
2018-11-25T20:25:32.586Z,15.33
2018-11-25T20:28:01.413Z,15.20
2018-11-25T20:30:31.321Z,16.37
2018-11-25T20:33:05.410Z,16.37
2018-11-25T20:35:34.261Z,16.70
2018-11-25T20:38:08.519Z,17.40
2018-11-25T20:40:37.374Z,16.30
2018-11-25T20:43:06.367Z,17.00
2018-11-25T20:45:40.613Z,17.00
2018-11-25T20:48:09.409Z,15.83
2018-11-25T20:50:38.225Z,17.27
2018-11-25T20:53:12.372Z,18.23
2018-11-25T20:55:41.206Z,17.90
2018-11-25T20:58:10.451Z,17.03
2018-11-25T21:00:40.145Z,17.67
2018-11-25T21:03:09.475Z,18.50
2018-11-25T21:05:38.730Z,18.10
2018-11-25T21:08:08.012Z,18.87
2018-11-25T21:10:37.629Z,19.07
2018-11-25T21:13:07.553Z,19.13
2018-11-25T21:15:36.494Z,19.80
2018-11-25T21:18:05.544Z,19.30
2018-11-25T21:20:34.358Z,19.37
2018-11-25T21:23:03.173Z,19.60
2018-11-25T21:25:32.516Z,19.10
2018-11-25T21:28:01.449Z,18.43
2018-11-25T21:30:30.300Z,18.80
2018-11-25T21:32:59.856Z,21.40
2018-11-25T21:35:28.772Z,23.50
2018-11-25T21:37:57.605Z,23.27
2018-11-25T21:40:26.535Z,19.63
2018-11-25T21:42:55.745Z,18.23
2018-11-25T21:45:24.637Z,20.03
2018-11-25T21:47:53.489Z,20.27
2018-11-25T21:50:24.127Z,18.43
2018-11-25T21:52:53.093Z,17.87
2018-11-25T21:55:22.378Z,18.33
2018-11-25T21:57:51.326Z,18.33
2018-11-25T22:00:24.344Z,17.13
2018-11-25T22:02:53.185Z,17.23
2018-11-25T22:05:24.828Z,19.60
2018-11-25T22:07:50.918Z,17.83
2018-11-25T22:10:21.150Z,17.55
2018-11-25T22:12:50.229Z,17.03
2018-11-25T22:15:21.765Z,17.27
2018-11-25T22:17:50.904Z,17.30
2018-11-25T22:20:20.273Z,16.67
2018-11-25T22:22:49.073Z,16.17
2018-11-25T22:25:18.759Z,17.00
2018-11-25T22:27:48.350Z,15.93
2018-11-25T22:30:18.028Z,16.00
2018-11-25T22:32:46.845Z,16.07
2018-11-25T22:35:16.197Z,15.20
2018-11-25T22:37:45.042Z,15.17
2018-11-25T22:40:14.603Z,16.43
2018-11-25T22:42:43.821Z,14.97
2018-11-25T22:45:14.050Z,15.20
2018-11-25T22:47:42.930Z,15.97
2018-11-25T22:50:12.242Z,14.37
2018-11-25T22:52:41.068Z,15.43
2018-11-25T22:55:11.389Z,14.33
2018-11-25T22:57:40.208Z,14.80
2018-11-25T23:00:12.618Z,13.47
2018-11-25T23:02:41.709Z,13.97
2018-11-25T23:05:22.065Z,13.83
2018-11-25T23:07:50.966Z,13.47
2018-11-25T23:10:20.145Z,14.10
2018-11-25T23:12:48.993Z,13.60
2018-11-25T23:15:17.812Z,13.13
2018-11-25T23:17:46.634Z,12.93
2018-11-25T23:20:15.477Z,12.60
2018-11-25T23:22:44.721Z,13.73
2018-11-25T23:25:13.613Z,12.23
2018-11-25T23:27:42.436Z,12.73
2018-11-25T23:30:11.336Z,13.97
2018-11-25T23:32:40.188Z,13.97
2018-11-25T23:35:15.222Z,13.80
2018-11-25T23:37:44.473Z,14.20
2018-11-25T23:40:13.432Z,14.13
2018-11-25T23:42:42.285Z,14.33
2018-11-25T23:45:12.600Z,12.40
2018-11-25T23:47:41.419Z,12.53
2018-11-25T23:50:10.757Z,13.13
2018-11-25T23:52:39.580Z,12.93
2018-11-25T23:55:09.327Z,14.90
2018-11-25T23:57:38.181Z,13.83
